Time;durP1;ratioP1;P1;durP2;ratioP2;P2;SDS_P1;SDS_P2;PMS_P1;PMS_P2;Temp;Humidity;BMP_temperature;BMP_pressure;BME280_temperature;BME280_humidity;BME280_pressure;Samples;Min_cycle;Max_cycle;Signal;HPM_P1;HPM_P2
2023/08/14 00:00:50;;;;;;;6.20;4.60;;;;;;;22.11;100.00;100327.88;181267;1257;58250;-89
2023/08/14 00:05:11;;;;;;;7.00;5.40;;;;;;;21.96;100.00;100331.39;181346;1256;43944;-89
2023/08/14 00:09:15;;;;;;;6.40;5.00;;;;;;;21.86;100.00;100334.71;181460;1256;44529;-89
2023/08/14 00:13:20;;;;;;;6.30;5.70;;;;;;;21.86;100.00;100342.42;181241;1257;44002;-90
2023/08/14 00:17:23;;;;;;;6.10;5.40;;;;;;;21.76;100.00;100344.36;181246;1260;44068;-89
2023/08/14 00:21:27;;;;;;;5.80;4.50;;;;;;;21.65;100.00;100349.81;181278;1257;58471;-89
2023/08/14 00:25:30;;;;;;;8.00;5.40;;;;;;;21.57;100.00;100352.59;181135;1257;43973;-89
2023/08/14 00:29:34;;;;;;;6.20;5.30;;;;;;;21.53;100.00;100353.04;181250;1259;44596;-89
2023/08/14 00:33:37;;;;;;;5.30;4.00;;;;;;;21.57;100.00;100356.59;181321;1258;43960;-88
2023/08/14 00:37:45;;;;;;;8.10;5.90;;;;;;;21.69;100.00;100357.42;181257;1257;44080;-89
2023/08/14 00:41:49;;;;;;;5.40;5.00;;;;;;;21.78;100.00;100357.86;181141;1257;59524;-89
2023/08/14 00:45:55;;;;;;;7.70;5.60;;;;;;;21.75;100.00;100360.45;181328;1260;43820;-89
2023/08/14 00:49:59;;;;;;;5.30;4.60;;;;;;;21.60;100.00;100361.38;181327;1257;43882;-89
2023/08/14 00:54:03;;;;;;;4.40;3.70;;;;;;;21.56;100.00;100360.54;181201;1257;43940;-89
2023/08/14 00:58:06;;;;;;;8.20;6.20;;;;;;;21.55;100.00;100355.71;181343;1257;43800;-89
2023/08/14 01:02:10;;;;;;;7.60;4.60;;;;;;;21.61;100.00;100350.05;181428;1256;58728;-90
2023/08/14 01:06:14;;;;;;;6.90;4.90;;;;;;;21.61;100.00;100348.98;181275;1257;43826;-89
2023/08/14 01:10:18;;;;;;;4.90;4.50;;;;;;;21.62;100.00;100347.66;181256;1257;44033;-90
2023/08/14 01:14:31;;;;;;;6.20;4.40;;;;;;;21.57;100.00;100350.10;181160;1257;43827;-89
2023/08/14 01:18:38;;;;;;;5.00;4.40;;;;;;;21.53;100.00;100346.05;181372;1257;44034;-90
2023/08/14 01:22:59;;;;;;;6.00;4.80;;;;;;;21.54;100.00;100349.92;181234;1257;58264;-89
2023/08/14 01:27:02;;;;;;;5.10;3.80;;;;;;;21.56;100.00;100344.81;181181;1257;43805;-89
2023/08/14 01:31:06;;;;;;;7.00;4.90;;;;;;;21.59;100.00;100351.38;181312;1257;43850;-89
2023/08/14 01:35:10;;;;;;;5.60;4.80;;;;;;;21.67;100.00;100341.54;181343;1257;44029;-90
2023/08/14 01:39:19;;;;;;;5.10;4.70;;;;;;;21.73;100.00;100335.99;181215;1260;43989;-90
2023/08/14 01:43:33;;;;;;;11.20;5.90;;;;;;;21.76;100.00;100326.48;181345;1257;58371;-90
2023/08/14 01:47:39;;;;;;;5.80;4.50;;;;;;;21.70;100.00;100327.83;181355;1257;44159;-90
2023/08/14 01:51:46;;;;;;;6.70;5.10;;;;;;;21.68;100.00;100323.72;181248;1257;43864;-89
2023/08/14 01:55:50;;;;;;;4.40;4.00;;;;;;;21.67;100.00;100320.27;181278;1257;43737;-89
2023/08/14 01:59:53;;;;;;;6.10;5.00;;;;;;;21.67;100.00;100314.48;181206;1257;44008;-89
2023/08/14 02:03:57;;;;;;;7.60;5.00;;;;;;;21.73;100.00;100316.19;181187;1257;58596;-90
2023/08/14 02:08:01;;;;;;;9.90;6.90;;;;;;;21.76;100.00;100314.54;181431;1258;44053;-89
2023/08/14 02:12:05;;;;;;;9.90;4.60;;;;;;;21.72;100.00;100313.67;181274;1257;44069;-90
2023/08/14 02:16:08;;;;;;;7.90;4.70;;;;;;;21.60;100.00;100313.12;181439;1257;43880;-90
2023/08/14 02:20:12;;;;;;;6.20;5.60;;;;;;;21.48;100.00;100316.86;181361;1256;44136;-90
2023/08/14 02:24:15;;;;;;;7.40;5.00;;;;;;;21.42;100.00;100316.54;181312;1257;60352;-89
2023/08/14 02:28:19;;;;;;;8.60;6.20;;;;;;;21.45;100.00;100315.92;181310;1257;43952;-89
2023/08/14 02:32:22;;;;;;;6.90;4.30;;;;;;;21.43;100.00;100315.36;181199;1257;43866;-90
2023/08/14 02:36:26;;;;;;;5.30;3.50;;;;;;;21.31;100.00;100313.28;181282;1257;44156;-90
2023/08/14 02:40:30;;;;;;;5.40;4.80;;;;;;;21.19;100.00;100310.42;181286;1257;43821;-90
2023/08/14 02:44:34;;;;;;;7.60;5.80;;;;;;;21.13;100.00;100313.76;181127;1257;61084;-90
2023/08/14 02:48:38;;;;;;;5.30;4.70;;;;;;;21.14;100.00;100308.61;181180;1257;44039;-91
2023/08/14 02:52:41;;;;;;;5.50;5.00;;;;;;;21.17;100.00;100303.30;181254;1257;43923;-90
2023/08/14 02:56:45;;;;;;;6.20;5.10;;;;;;;21.22;100.00;100299.95;181241;1257;43919;-90
2023/08/14 03:00:49;;;;;;;9.00;5.40;;;;;;;21.27;100.00;100307.30;181192;1257;44200;-89
2023/08/14 03:04:54;;;;;;;6.40;5.10;;;;;;;21.32;100.00;100314.96;181292;1257;58196;-90
2023/08/14 03:08:59;;;;;;;4.40;4.00;;;;;;;21.42;100.00;100321.18;181251;1261;44131;-89
2023/08/14 03:13:03;;;;;;;5.40;4.80;;;;;;;21.42;100.00;100326.48;181353;1257;43745;-89
2023/08/14 03:17:06;;;;;;;6.60;5.20;;;;;;;21.43;100.00;100329.65;181336;1257;43936;-88
2023/08/14 03:21:10;;;;;;;5.00;4.40;;;;;;;21.50;100.00;100330.20;181227;1257;43703;-90
2023/08/14 03:25:26;;;;;;;6.40;4.40;;;;;;;21.57;100.00;100328.66;181320;1257;58234;-90
2023/08/14 03:38:33;;;;;;;7.10;5.60;;;;;;;21.68;100.00;100338.98;181589;1256;44068;-90
2023/08/14 03:42:40;;;;;;;5.80;4.20;;;;;;;21.61;100.00;100335.23;181555;1257;43895;-91
2023/08/14 03:46:44;;;;;;;9.00;4.40;;;;;;;21.51;100.00;100337.62;181223;1257;58990;-86
2023/08/14 03:50:47;;;;;;;6.80;4.90;;;;;;;21.52;100.00;100339.63;181354;1257;43813;-86
2023/08/14 03:54:50;;;;;;;5.30;4.80;;;;;;;21.48;100.00;100345.21;181256;1257;44075;-84
2023/08/14 03:58:54;;;;;;;8.50;4.60;;;;;;;21.52;100.00;100355.57;181310;1257;44027;-85
2023/08/14 04:02:57;;;;;;;5.70;5.10;;;;;;;21.49;100.00;100356.99;181336;1257;43834;-85
2023/08/14 04:07:01;;;;;;;5.60;5.00;;;;;;;21.42;100.00;100363.63;181419;1257;58319;-85
2023/08/14 04:11:04;;;;;;;7.40;5.30;;;;;;;21.43;100.00;100370.20;181263;1256;43806;-86
2023/08/14 04:15:13;;;;;;;5.00;4.50;;;;;;;21.48;100.00;100374.23;181219;1257;43864;-85
2023/08/14 04:19:18;;;;;;;6.20;4.80;;;;;;;21.70;100.00;100374.91;181335;1256;43822;-85
2023/08/14 04:23:24;;;;;;;11.90;5.30;;;;;;;22.23;100.00;100371.23;181169;1257;43697;-85
2023/08/14 04:27:28;;;;;;;5.10;4.40;;;;;;;22.79;100.00;100373.34;181368;1257;57728;-85
2023/08/14 04:31:31;;;;;;;8.20;5.70;;;;;;;23.43;100.00;100369.90;181308;1257;43811;-86
2023/08/14 04:35:37;;;;;;;8.40;7.00;;;;;;;23.79;100.00;100366.36;181299;1257;43755;-86
2023/08/14 04:39:41;;;;;;;10.40;6.90;;;;;;;24.45;100.00;100369.40;181391;1257;43716;-86
2023/08/14 04:43:45;;;;;;;12.00;6.30;;;;;;;25.06;100.00;100367.95;181417;1257;43717;-86
2023/08/14 04:47:49;;;;;;;5.70;5.10;;;;;;;25.40;100.00;100360.10;181485;1257;61142;-86
2023/08/14 04:51:52;;;;;;;12.60;6.00;;;;;;;25.80;100.00;100361.30;181431;1258;43725;-85
2023/08/14 04:55:56;;;;;;;7.20;5.10;;;;;;;25.86;100.00;100367.02;181371;1256;44147;-85
2023/08/14 05:00:00;;;;;;;11.10;5.90;;;;;;;26.35;99.94;100373.44;181347;1257;44129;-85
2023/08/14 05:04:05;;;;;;;10.70;6.70;;;;;;;26.84;96.04;100384.02;181419;1257;43739;-86
2023/08/14 05:08:09;;;;;;;6.50;5.60;;;;;;;27.21;92.44;100381.23;181185;1257;255437;-86
2023/08/14 05:12:13;;;;;;;6.00;5.00;;;;;;;27.46;91.47;100382.07;181338;1256;43710;-86
2023/08/14 05:16:17;;;;;;;7.60;4.60;;;;;;;27.65;90.05;100377.40;181394;1257;44009;-85
2023/08/14 05:20:22;;;;;;;10.80;5.40;;;;;;;27.86;89.05;100383.38;181380;1257;43814;-86
2023/08/14 05:24:26;;;;;;;6.90;6.20;;;;;;;27.92;87.32;100388.27;181397;1257;43181;-86
2023/08/14 05:28:30;;;;;;;7.60;5.50;;;;;;;27.88;87.57;100388.63;181421;1256;58766;-85
2023/08/14 05:32:34;;;;;;;13.10;6.50;;;;;;;28.00;88.33;100389.13;181423;1257;43167;-86
2023/08/14 05:36:38;;;;;;;10.90;7.40;;;;;;;28.00;86.80;100393.70;181403;1257;44095;-86
2023/08/14 05:40:42;;;;;;;12.90;7.20;;;;;;;27.86;87.12;100392.29;181425;1257;43871;-86
2023/08/14 05:44:46;;;;;;;9.70;7.20;;;;;;;27.52;88.79;100400.09;181316;1256;44258;-86
2023/08/14 05:48:51;;;;;;;9.30;4.40;;;;;;;27.83;89.23;100399.77;181665;1257;58044;-86
2023/08/14 05:52:59;;;;;;;6.50;5.10;;;;;;;28.21;87.93;100399.20;181506;1257;43099;-86
2023/08/14 05:57:03;;;;;;;9.00;5.70;;;;;;;28.61;86.76;100401.61;181359;1257;43846;-86
2023/08/14 06:01:08;;;;;;;8.10;6.00;;;;;;;29.02;83.97;100402.45;181472;1257;43726;-86
2023/08/14 06:05:12;;;;;;;9.40;5.50;;;;;;;29.34;82.40;100402.45;181420;1257;43766;-86
2023/08/14 06:09:17;;;;;;;6.80;4.50;;;;;;;29.65;81.04;100400.01;181368;1257;58873;-86
2023/08/14 06:13:21;;;;;;;5.00;3.10;;;;;;;29.90;78.02;100407.41;181463;1256;43848;-86
2023/08/14 06:17:27;;;;;;;6.60;3.40;;;;;;;29.82;74.85;100407.85;181455;1257;43531;-86
2023/08/14 06:21:34;;;;;;;3.20;2.80;;;;;;;29.79;75.84;100410.61;181455;1256;43736;-86
2023/08/14 06:25:38;;;;;;;4.80;2.30;;;;;;;29.88;75.04;100414.46;181340;1260;43011;-86
2023/08/14 06:29:43;;;;;;;16.80;4.60;;;;;;;29.97;74.42;100418.77;181406;1256;59729;-90
2023/08/14 06:33:49;;;;;;;3.10;2.50;;;;;;;30.09;74.52;100418.41;181663;1257;43799;-86
2023/08/14 06:37:54;;;;;;;6.00;2.60;;;;;;;30.19;73.02;100412.99;181503;1257;44591;-86
2023/08/14 06:41:58;;;;;;;4.70;2.80;;;;;;;29.59;73.48;100414.63;181359;1257;43168;-86
2023/08/14 06:46:03;;;;;;;4.90;3.60;;;;;;;28.99;75.23;100419.63;181558;1256;43918;-86
2023/08/14 06:50:11;;;;;;;2.50;2.20;;;;;;;28.89;78.13;100420.39;181456;1256;60038;-86
2023/08/14 06:54:15;;;;;;;5.40;3.50;;;;;;;28.62;77.48;100418.41;181483;1256;43523;-86
2023/08/14 06:58:19;;;;;;;4.20;3.40;;;;;;;28.52;78.61;100426.92;181482;1257;44062;-86
2023/08/14 07:02:24;;;;;;;3.30;2.40;;;;;;;28.66;79.18;100431.30;181420;1257;43819;-86
2023/08/14 07:06:28;;;;;;;5.10;3.10;;;;;;;28.75;77.86;100427.27;181418;1256;43798;-86
2023/08/14 07:10:32;;;;;;;6.80;2.90;;;;;;;28.69;77.66;100416.80;181428;1257;59791;-86
2023/08/14 07:14:37;;;;;;;5.60;3.10;;;;;;;28.47;76.85;100412.92;181410;1256;45766;-86
2023/08/14 07:18:41;;;;;;;4.00;2.60;;;;;;;28.58;77.24;100415.23;181478;1256;44264;-86
2023/08/14 07:22:45;;;;;;;3.60;2.90;;;;;;;28.61;76.42;100419.06;181432;1257;43775;-86
2023/08/14 07:26:50;;;;;;;4.60;2.60;;;;;;;28.83;76.27;100419.44;181492;1257;43663;-86
2023/08/14 07:30:54;;;;;;;3.60;2.40;;;;;;;29.31;74.22;100422.88;181500;1257;59309;-86
2023/08/14 07:34:58;;;;;;;5.00;3.30;;;;;;;29.78;72.24;100419.36;181605;1257;43655;-86
2023/08/14 07:39:03;;;;;;;3.50;2.30;;;;;;;30.08;70.91;100416.20;181473;1257;44295;-86
2023/08/14 07:43:08;;;;;;;4.20;2.20;;;;;;;30.15;70.87;100420.23;181624;1257;43698;-86
2023/08/14 07:47:12;;;;;;;7.60;3.20;;;;;;;30.25;71.09;100420.15;181557;1256;43791;-86
2023/08/14 07:51:16;;;;;;;4.50;2.50;;;;;;;30.42;69.87;100418.40;181613;1255;58011;-86
2023/08/14 07:55:21;;;;;;;4.00;3.40;;;;;;;30.73;68.75;100416.52;181664;1257;43787;-86
2023/08/14 07:59:25;;;;;;;4.80;2.50;;;;;;;30.72;66.82;100412.13;181588;1257;43668;-86
2023/08/14 08:03:30;;;;;;;3.70;3.10;;;;;;;30.81;68.95;100416.66;181415;1257;43688;-86
2023/08/14 08:07:34;;;;;;;2.60;2.40;;;;;;;31.03;67.90;100419.69;181570;1257;43257;-86
2023/08/14 08:11:38;;;;;;;3.00;2.60;;;;;;;30.97;66.82;100424.02;181466;1256;57469;-86
2023/08/14 08:15:43;;;;;;;3.20;2.90;;;;;;;30.74;65.63;100420.31;181725;1257;43213;-86
2023/08/14 08:19:47;;;;;;;2.30;2.10;;;;;;;30.76;67.58;100425.83;181546;1257;43854;-86
2023/08/14 08:23:52;;;;;;;3.70;3.20;;;;;;;30.95;66.59;100429.88;181453;1257;43579;-86
2023/08/14 08:27:58;;;;;;;2.90;2.50;;;;;;;31.01;66.38;100422.85;181624;1257;43918;-86
2023/08/14 08:32:03;;;;;;;3.60;2.60;;;;;;;31.20;66.29;100410.63;181159;1261;58103;-90
2023/08/14 08:36:07;;;;;;;3.30;2.10;;;;;;;31.38;64.08;100407.16;181075;1261;43710;-90
2023/08/14 08:40:10;;;;;;;3.90;2.60;;;;;;;31.50;63.39;100405.44;181176;1260;44201;-90
2023/08/14 08:44:26;;;;;;;6.00;3.20;;;;;;;31.55;63.43;100407.35;181108;1260;44076;-90
2023/08/14 08:48:34;;;;;;;3.80;2.70;;;;;;;31.44;65.54;100405.60;181115;1260;43989;-89
2023/08/14 08:52:38;;;;;;;4.20;3.30;;;;;;;31.29;64.71;100412.09;181130;1258;59759;-89
2023/08/14 08:56:44;;;;;;;3.50;2.90;;;;;;;31.21;64.55;100408.92;181209;1259;43688;-89
2023/08/14 09:00:49;;;;;;;2.90;2.50;;;;;;;31.26;65.10;100403.44;181121;1261;43745;-89
2023/08/14 09:04:59;;;;;;;3.00;2.30;;;;;;;31.22;65.51;100398.84;181177;1260;43904;-89
2023/08/14 09:09:06;;;;;;;2.70;2.50;;;;;;;31.13;64.60;100400.38;181115;1260;44091;-90
2023/08/14 09:13:10;;;;;;;4.70;2.20;;;;;;;31.16;65.87;100397.98;181130;1259;60525;-90
2023/08/14 09:17:16;;;;;;;5.50;2.90;;;;;;;31.42;66.78;100400.38;181194;1260;43717;-89
2023/08/14 09:21:22;;;;;;;4.50;2.70;;;;;;;31.68;65.42;100398.24;181163;1260;43824;-89
2023/08/14 09:25:27;;;;;;;3.40;2.90;;;;;;;31.62;64.28;100397.93;181151;1259;43744;-90
2023/08/14 09:29:32;;;;;;;3.20;2.80;;;;;;;31.77;63.82;100392.38;181363;1257;43888;-89
2023/08/14 09:33:38;;;;;;;2.50;2.30;;;;;;;32.00;63.26;100391.80;181429;1257;56929;-90
2023/08/14 09:37:47;;;;;;;4.10;2.80;;;;;;;32.13;64.33;100391.31;181467;1257;44214;-90
2023/08/14 09:41:53;;;;;;;3.30;2.20;;;;;;;32.20;62.87;100383.70;181399;1257;44014;-89
2023/08/14 09:45:58;;;;;;;7.10;2.20;;;;;;;32.01;65.94;100391.39;181423;1256;43818;-89
2023/08/14 09:50:03;;;;;;;2.80;2.60;;;;;;;32.12;65.27;100385.09;181291;1257;43836;-90
2023/08/14 09:54:09;;;;;;;4.70;2.70;;;;;;;32.20;63.98;100376.06;181474;1256;58853;-90
2023/08/14 09:58:12;;;;;;;10.20;2.80;;;;;;;32.26;65.20;100370.90;181499;1257;43757;-90
2023/08/14 10:02:17;;;;;;;3.00;2.60;;;;;;;32.21;64.86;100372.98;181351;1257;43763;-90
2023/08/14 10:06:23;;;;;;;4.90;3.20;;;;;;;32.19;65.91;100364.49;181357;1257;43842;-90
2023/08/14 10:10:30;;;;;;;2.80;2.60;;;;;;;32.23;64.49;100364.23;181451;1257;43973;-90
2023/08/14 10:14:36;;;;;;;3.60;2.10;;;;;;;32.29;66.05;100369.10;181453;1257;57099;-90
2023/08/14 10:18:44;;;;;;;4.40;3.20;;;;;;;32.22;65.00;100373.41;181356;1257;43803;-90
2023/08/14 10:22:49;;;;;;;6.10;3.20;;;;;;;32.19;67.33;100375.07;181366;1256;43864;-90
2023/08/14 10:26:55;;;;;;;7.20;3.90;;;;;;;32.25;67.15;100371.99;181360;1260;43729;-90
2023/08/14 10:31:00;;;;;;;4.80;3.00;;;;;;;32.26;66.81;100366.83;181201;1257;43782;-90
2023/08/14 10:35:05;;;;;;;10.00;3.10;;;;;;;32.36;67.32;100362.38;181229;1258;59275;-90
2023/08/14 10:39:12;;;;;;;3.10;2.60;;;;;;;32.42;63.36;100362.83;181198;1258;44157;-90
2023/08/14 10:43:24;;;;;;;7.00;3.40;;;;;;;32.42;62.88;100354.97;181192;1261;43988;-89
2023/08/14 10:47:31;;;;;;;3.80;3.30;;;;;;;32.45;62.81;100351.61;181159;1259;43964;-90
2023/08/14 10:51:34;;;;;;;5.50;3.00;;;;;;;32.47;65.56;100349.75;181174;1259;43907;-89
2023/08/14 10:55:46;;;;;;;3.90;3.10;;;;;;;32.21;66.88;100353.48;181150;1257;60973;-90
2023/08/14 10:59:56;;;;;;;12.50;3.90;;;;;;;32.27;67.15;100354.95;181208;1258;43877;-90
2023/08/14 11:04:05;;;;;;;5.10;3.20;;;;;;;32.29;67.65;100356.05;181168;1261;43776;-90
2023/08/14 11:08:12;;;;;;;4.20;3.10;;;;;;;32.30;65.57;100351.27;181275;1259;43757;-90
2023/08/14 11:12:27;;;;;;;8.70;6.90;;;;;;;32.39;64.67;100347.09;181231;1259;43805;-89
2023/08/14 11:16:38;;;;;;;5.80;4.20;;;;;;;32.50;65.55;100345.46;181233;1257;59405;-88
2023/08/14 11:20:43;;;;;;;4.60;3.90;;;;;;;32.43;67.96;100346.42;181155;1257;46191;-89
2023/08/14 11:24:52;;;;;;;43.20;22.80;;;;;;;32.37;71.10;100351.54;181199;1259;44424;-90
2023/08/14 11:28:56;;;;;;;4.20;3.00;;;;;;;32.52;66.06;100349.81;181256;1257;43694;-90
2023/08/14 11:33:04;;;;;;;24.10;13.90;;;;;;;32.66;66.10;100344.01;181469;1257;44195;-89
2023/08/14 11:37:11;;;;;;;17.30;9.60;;;;;;;32.59;66.13;100336.44;181422;1257;58274;-88
2023/08/14 11:41:16;;;;;;;36.00;21.30;;;;;;;32.64;67.84;100331.72;181516;1257;43760;-90
2023/08/14 11:45:37;;;;;;;16.40;10.50;;;;;;;32.75;64.75;100327.83;181271;1257;44591;-90
2023/08/14 11:49:50;;;;;;;6.80;4.10;;;;;;;32.84;64.92;100324.54;181327;1257;50390;-89
2023/08/14 11:53:56;;;;;;;6.20;4.50;;;;;;;32.99;66.80;100324.35;181434;1257;43835;-89
2023/08/14 11:58:00;;;;;;;7.70;6.00;;;;;;;33.09;64.55;100318.23;181374;1257;58029;-89
2023/08/14 12:02:04;;;;;;;9.10;7.20;;;;;;;33.27;66.37;100314.34;181255;1257;43883;-89
2023/08/14 12:06:08;;;;;;;3.90;3.40;;;;;;;33.33;67.32;100305.35;181220;1256;43812;-89
2023/08/14 12:10:15;;;;;;;5.60;3.80;;;;;;;33.36;66.31;100302.92;181452;1260;43705;-89
2023/08/14 12:14:19;;;;;;;12.00;9.20;;;;;;;33.22;64.39;100300.56;181485;1257;43852;-89
2023/08/14 12:18:24;;;;;;;4.50;3.80;;;;;;;33.15;63.03;100300.59;181343;1256;57296;-89
2023/08/14 12:22:27;;;;;;;11.00;4.10;;;;;;;32.94;65.02;100301.73;181481;1256;43737;-90
2023/08/14 12:26:43;;;;;;;9.40;6.90;;;;;;;32.86;65.65;100297.28;181385;1257;43964;-89
2023/08/14 12:30:49;;;;;;;7.70;3.80;;;;;;;33.00;63.81;100292.27;181213;1259;44246;-89
2023/08/14 12:34:52;;;;;;;3.70;3.00;;;;;;;33.12;68.50;100289.11;181302;1257;43830;-89
2023/08/14 12:38:56;;;;;;;4.10;3.70;;;;;;;33.34;66.82;100284.73;181157;1257;60360;-89
2023/08/14 12:43:00;;;;;;;6.00;3.70;;;;;;;33.45;64.46;100281.98;181332;1257;43723;-89
2023/08/14 12:47:04;;;;;;;5.30;3.30;;;;;;;33.42;62.38;100279.83;181249;1257;44013;-88
2023/08/14 12:51:08;;;;;;;4.20;3.70;;;;;;;33.42;61.96;100266.27;181165;1257;43842;-89
2023/08/14 12:55:14;;;;;;;4.60;2.30;;;;;;;33.47;61.99;100263.71;181241;1260;44059;-89
2023/08/14 12:59:21;;;;;;;3.50;2.80;;;;;;;33.43;63.46;100263.34;181223;1257;57008;-87
2023/08/14 13:03:34;;;;;;;6.60;4.00;;;;;;;33.43;61.92;100265.92;181190;1259;43750;-87
2023/08/14 13:07:40;;;;;;;2.90;2.70;;;;;;;33.41;61.42;100265.15;181200;1257;43812;-89
2023/08/14 13:11:44;;;;;;;19.30;4.30;;;;;;;33.51;60.91;100265.13;181206;1258;43760;-89
2023/08/14 13:15:47;;;;;;;3.70;3.30;;;;;;;33.53;59.53;100259.95;181158;1257;43819;-89
2023/08/14 13:19:52;;;;;;;3.70;3.40;;;;;;;33.53;60.83;100257.25;181216;1257;57210;-90
2023/08/14 13:23:56;;;;;;;4.20;3.10;;;;;;;33.54;60.28;100255.27;181270;1257;43801;-89
2023/08/14 13:28:00;;;;;;;5.40;3.90;;;;;;;33.57;61.06;100248.03;181205;1259;44251;-89
2023/08/14 13:32:04;;;;;;;6.60;3.00;;;;;;;33.67;61.89;100246.34;181198;1260;43997;-90
2023/08/14 13:36:08;;;;;;;4.20;3.80;;;;;;;33.87;62.20;100239.73;181087;1259;43768;-90
2023/08/14 13:40:12;;;;;;;5.60;3.90;;;;;;;33.80;60.37;100235.30;181141;1259;59467;-90
2023/08/14 13:44:16;;;;;;;6.70;3.90;;;;;;;33.83;61.57;100231.97;181064;1257;44102;-90
2023/08/14 13:48:20;;;;;;;8.20;3.40;;;;;;;33.78;61.39;100225.15;181151;1258;44107;-89
2023/08/14 13:52:23;;;;;;;7.60;4.20;;;;;;;33.81;57.73;100216.09;181168;1257;44101;-89
2023/08/14 13:56:29;;;;;;;9.00;3.40;;;;;;;33.85;59.54;100213.42;181280;1259;43965;-89
2023/08/14 14:00:32;;;;;;;3.70;3.30;;;;;;;33.88;58.23;100203.15;181225;1258;60269;-89
2023/08/14 14:04:36;;;;;;;4.40;3.40;;;;;;;33.90;59.49;100192.21;181153;1257;43916;-90
2023/08/14 14:08:41;;;;;;;5.50;2.60;;;;;;;33.93;56.89;100183.64;181200;1258;43748;-90
2023/08/14 14:12:44;;;;;;;3.70;2.70;;;;;;;33.81;56.26;100172.30;181290;1260;43933;-90
2023/08/14 14:17:03;;;;;;;10.60;3.10;;;;;;;33.56;58.60;100166.44;181168;1257;43853;-88
2023/08/14 14:21:07;;;;;;;4.90;3.30;;;;;;;33.28;58.54;100163.77;181354;1257;60747;-88
2023/08/14 14:25:11;;;;;;;5.50;3.00;;;;;;;33.41;58.45;100167.02;181263;1257;44053;-90
2023/08/14 14:29:15;;;;;;;4.30;2.20;;;;;;;33.66;57.99;100169.29;181161;1257;43736;-89
2023/08/14 14:33:19;;;;;;;3.30;3.00;;;;;;;33.76;57.34;100171.83;181267;1257;44002;-89
2023/08/14 14:37:23;;;;;;;7.50;4.10;;;;;;;33.67;58.65;100173.98;181212;1257;43816;-91
2023/08/14 14:41:27;;;;;;;8.30;3.20;;;;;;;33.48;57.82;100164.64;181260;1256;58429;-89
2023/08/14 14:45:31;;;;;;;9.10;4.20;;;;;;;33.32;57.63;100152.39;181342;1257;44081;-89
2023/08/14 14:49:38;;;;;;;7.40;2.90;;;;;;;33.13;57.87;100141.06;181363;1256;43801;-89
2023/08/14 14:53:42;;;;;;;3.70;2.60;;;;;;;32.96;58.25;100151.02;181392;1257;44149;-89
2023/08/14 14:57:45;;;;;;;7.80;3.50;;;;;;;32.73;59.84;100173.95;181361;1257;44002;-90
2023/08/14 15:01:49;;;;;;;3.80;3.50;;;;;;;32.57;61.37;100189.93;181381;1257;59687;-90
2023/08/14 15:05:53;;;;;;;6.80;3.30;;;;;;;32.40;61.24;100195.89;181410;1257;43248;-89
2023/08/14 15:09:56;;;;;;;5.40;2.50;;;;;;;32.26;59.76;100200.36;181482;1256;44024;-89
2023/08/14 15:14:00;;;;;;;6.90;3.20;;;;;;;32.19;60.32;100202.16;181319;1257;44046;-88
2023/08/14 15:18:04;;;;;;;4.60;3.30;;;;;;;32.10;62.28;100208.70;181363;1256;43750;-89
2023/08/14 15:22:08;;;;;;;5.30;3.40;;;;;;;32.04;61.24;100214.48;181266;1257;59293;-89
2023/08/14 15:26:12;;;;;;;6.90;4.00;;;;;;;32.01;61.51;100217.48;181576;1256;43883;-89
2023/08/14 15:30:16;;;;;;;3.40;2.90;;;;;;;31.96;61.63;100210.83;181405;1256;43807;-88
2023/08/14 15:34:21;;;;;;;7.80;3.20;;;;;;;31.90;62.00;100218.17;181218;1256;44934;-89
2023/08/14 15:38:24;;;;;;;10.00;3.90;;;;;;;31.87;62.66;100225.27;181290;1257;43693;-89
2023/08/14 15:42:28;;;;;;;16.00;3.80;;;;;;;31.83;63.25;100227.00;181201;1257;60221;-89
2023/08/14 15:46:31;;;;;;;5.30;3.70;;;;;;;31.78;63.94;100225.00;181359;1257;43753;-90
2023/08/14 15:50:41;;;;;;;4.10;3.70;;;;;;;31.73;63.66;100222.05;181118;1257;43816;-89
2023/08/14 15:54:45;;;;;;;34.30;9.90;;;;;;;31.75;63.38;100231.63;181201;1257;43744;-89
2023/08/14 15:58:56;;;;;;;3.40;3.10;;;;;;;31.80;63.41;100236.63;181304;1256;43696;-88
2023/08/14 16:03:00;;;;;;;6.20;2.40;;;;;;;31.89;65.84;100244.84;181203;1256;59456;-89
2023/08/14 16:07:04;;;;;;;;;;;;;;;31.84;66.85;100242.46;181516;1257;44335;-90
2023/08/14 16:11:22;;;;;;;5.00;2.60;;;;;;;31.61;67.34;100249.38;181509;1259;43926;-89
2023/08/14 16:15:29;;;;;;;3.50;2.60;;;;;;;31.38;68.91;100254.65;181336;1256;43941;-90
2023/08/14 16:19:33;;;;;;;4.20;3.10;;;;;;;31.22;68.62;100259.98;181305;1257;43843;-89
2023/08/14 16:23:39;;;;;;;4.70;3.00;;;;;;;30.84;69.15;100250.70;181390;1257;58132;-90
2023/08/14 16:27:44;;;;;;;3.30;2.70;;;;;;;30.56;69.80;100256.42;181379;1257;46889;-90
2023/08/14 16:31:53;;;;;;;2.90;2.10;;;;;;;30.33;71.23;100256.48;181199;1257;43894;-90
2023/08/14 16:35:57;;;;;;;6.10;2.30;;;;;;;30.05;72.25;100253.42;181241;1257;44261;-90
2023/08/14 16:40:06;;;;;;;3.30;1.90;;;;;;;29.79;74.09;100251.13;181176;1253;43782;-87
2023/08/14 16:44:11;;;;;;;;;;;;;;;29.60;75.41;100251.38;181644;1257;58873;-86
2023/08/14 16:48:16;;;;;;;8.80;3.30;;;;;;;29.51;75.93;100254.95;181631;1258;43545;-86
2023/08/14 16:52:19;;;;;;;6.40;2.30;;;;;;;29.49;76.23;100261.39;181407;1257;43131;-86
2023/08/14 16:56:23;;;;;;;2.20;1.90;;;;;;;29.49;77.03;100255.97;181290;1257;43774;-86
2023/08/14 17:00:27;;;;;;;3.10;2.10;;;;;;;29.41;76.79;100262.23;181378;1257;43704;-87
2023/08/14 17:04:32;;;;;;;3.00;2.80;;;;;;;29.31;76.91;100259.46;181383;1257;58863;-86
2023/08/14 17:08:37;;;;;;;2.50;1.70;;;;;;;29.22;78.33;100258.89;181146;1257;304756;-87
2023/08/14 17:12:41;;;;;;;6.40;2.20;;;;;;;29.14;78.51;100267.42;181420;1257;44058;-86
2023/08/14 17:16:46;;;;;;;13.40;2.20;;;;;;;29.04;78.78;100269.84;181283;1259;44286;-84
2023/08/14 17:20:50;;;;;;;7.00;2.70;;;;;;;28.93;78.67;100264.98;181558;1257;44452;-84
2023/08/14 17:24:54;;;;;;;4.00;2.60;;;;;;;28.80;80.07;100262.06;181427;1258;59407;-85
2023/08/14 17:28:58;;;;;;;4.00;1.70;;;;;;;28.66;80.95;100261.60;181380;1256;44012;-85
2023/08/14 17:33:02;;;;;;;3.70;1.80;;;;;;;28.61;81.28;100261.46;181461;1257;43763;-85
2023/08/14 17:37:06;;;;;;;2.50;2.30;;;;;;;28.56;81.36;100258.69;181308;1257;43791;-85
2023/08/14 17:41:11;;;;;;;;;;;;;;;28.50;81.32;100259.99;181363;1257;43825;-86
2023/08/14 17:45:16;;;;;;;8.20;2.60;;;;;;;28.42;80.87;100256.41;181383;1260;58551;-85
2023/08/14 17:49:20;;;;;;;5.70;2.60;;;;;;;28.33;81.25;100247.09;181436;1257;44354;-85
2023/08/14 17:53:24;;;;;;;3.90;2.40;;;;;;;28.21;82.06;100246.52;181423;1260;44144;-85
2023/08/14 17:57:28;;;;;;;5.20;2.70;;;;;;;28.06;82.44;100243.98;181500;1257;43594;-85
2023/08/14 18:01:32;;;;;;;5.70;2.10;;;;;;;27.92;82.76;100239.33;181400;1256;43874;-85
2023/08/14 18:05:36;;;;;;;13.00;4.10;;;;;;;27.80;83.30;100237.55;181378;1257;59528;-85
2023/08/14 18:09:41;;;;;;;8.30;2.90;;;;;;;27.70;84.33;100232.44;181329;1257;44144;-85
2023/08/14 18:13:48;;;;;;;5.10;2.60;;;;;;;27.59;85.46;100232.31;181767;1257;44014;-85
2023/08/14 18:17:52;;;;;;;2.90;2.20;;;;;;;27.44;85.80;100227.98;181526;1258;43857;-85
2023/08/14 18:21:56;;;;;;;5.90;1.80;;;;;;;27.35;86.23;100233.58;181457;1257;43832;-85
2023/08/14 18:26:00;;;;;;;6.70;2.70;;;;;;;27.26;86.60;100224.54;181457;1257;58454;-86
2023/08/14 18:30:05;;;;;;;6.10;3.10;;;;;;;27.16;87.06;100228.59;181535;1257;44117;-85
2023/08/14 18:34:11;;;;;;;25.10;3.90;;;;;;;27.05;87.78;100237.52;181461;1259;43817;-85
2023/08/14 18:38:15;;;;;;;8.00;2.60;;;;;;;26.90;88.75;100247.39;181523;1258;43716;-85
2023/08/14 18:42:19;;;;;;;13.70;2.70;;;;;;;26.80;89.56;100259.66;181461;1257;43757;-85
2023/08/14 18:46:25;;;;;;;2.40;1.80;;;;;;;26.73;90.50;100275.38;181676;1257;59280;-84
2023/08/14 18:50:29;;;;;;;5.40;2.90;;;;;;;26.67;91.01;100290.23;181470;1258;43738;-86